Terminal Aerodrome Forecast
Issued by NWS

Current Version | Previous Version | Text Only | Print | Product List | Glossary Off
Versions: 1 2 3 4 5 6 7 8 9 10 11 12 13 14 15 16 17 18 19 20 21 22 23 24 25

000
FTUS41 KILN 200500 RRA
TAFLCK
TAF
KLCK 200543Z 2006/2106 22006KT P6SM SCT040 BKN100
     FM200800 22006KT P6SM VCTS BKN040CB
     FM201400 23006KT P6SM SCT025
     FM201800 27012G20KT P6SM SCT040
     FM210000 27007KT P6SM BKN250=

USA.gov is the U.S. government's official web portal to all federal, state and local government web resources and services.